MV Evnia — 5BJG3 — position and weather

sailwx.info

Track history (hours):
 
Tides and Currents Weather Stations Pressure Air Temp Water Temp Dewpoint Dewpoint Depression Visibility Wind Speed Wind Dir Waves Ship Positions

MV Evnia

Last reported at 2015-Jun-24 23:33 UTC. Time now 2015-Jul-07 17:34 UTC.
Position S 28°54' E 032°05'.
Warning: this ship's position is 12 days out of date.

Length 190 m.

Type: Cargo ship. MMSI: 209279000.

Date/timePositionNaut miles runAvg speedWind from/ knotsBaromVisibWave heightAir tempDewpointWater temp
2015-Jun-24 23:33S 28°54' E 032°05'0 0.0
2015-Jun-24 22:33S 28°54' E 032°05'0 0.0
2015-Jun-24 21:33S 28°54' E 032°05'0 0.0
2015-Jun-24 20:33S 28°54' E 032°05'0 0.0
2015-Jun-24 19:30S 28°54' E 032°05'0 0.0
2015-Jun-24 18:33S 28°54' E 032°05'0 0.0
2015-Jun-24 17:33S 28°54' E 032°05'0 0.0
2015-Jun-24 16:33S 28°54' E 032°05'0 0.0
2015-Jun-24 15:33S 28°54' E 032°05'0 0.0
2015-Jun-24 13:33S 28°54' E 032°05'0 0.0
2015-Jun-24 12:33S 28°54' E 032°05'0 0.0
2015-Jun-24 11:33S 28°54' E 032°05'0 0.0
2015-Jun-24 10:33S 28°54' E 032°05'0 0.0
2015-Jun-24 09:33S 28°54' E 032°05'0 0.0
2015-Jun-24 08:33S 28°54' E 032°05'0 0.0
2015-Jun-24 07:33S 28°54' E 032°05'0 0.0
2015-Jun-24 06:33S 28°54' E 032°05'0 0.0
2015-Jun-24 05:33S 28°54' E 032°05'0 0.0
2015-Jun-24 04:33S 28°54' E 032°05'0 0.0
2015-Jun-24 03:32S 28°54' E 032°05'0 0.0
2015-Jun-24 02:32S 28°54' E 032°05'0 0.0
2015-Jun-24 01:26S 28°54' E 032°05'0 0.0
2015-Jun-24 00:32S 28°54' E 032°05'0 0.0
2015-Jun-23 23:32S 28°54' E 032°05'0 0.0
2015-Jun-23 22:32S 28°54' E 032°05'0 0.0
2015-Jun-23 21:32S 28°54' E 032°05'0 0.0
2015-Jun-23 20:32S 28°54' E 032°05'2 2.4
2015-Jun-23 19:32S 28°53' E 032°07'4 7.7
2015-Jun-23 19:03S 28°49' E 032°09'6 0.2
2015-Jun-22 19:14S 28°48' E 032°02'0 0.0
2015-Jun-22 16:12S 28°48' E 032°02'0 0.0
2015-Jun-22 15:33S 28°48' E 032°02'0 0.0
2015-Jun-22 14:33S 28°48' E 032°02'0 0.0
2015-Jun-22 13:33S 28°48' E 032°02'0 0.0
2015-Jun-22 12:33S 28°48' E 032°02'0 0.0
2015-Jun-22 11:33S 28°48' E 032°02'0 0.0
2015-Jun-22 10:33S 28°48' E 032°02'0 0.0
2015-Jun-22 06:19S 28°48' E 032°02'0 0.0
2015-Jun-22 05:33S 28°48' E 032°02'0 0.0
2015-Jun-22 00:10S 28°48' E 032°02'0 0.0
2015-Jun-21 23:33S 28°48' E 032°02'0 0.0
2015-Jun-21 22:32S 28°48' E 032°02'0 0.0
2015-Jun-21 21:06S 28°48' E 032°02'0 0.0
2015-Jun-21 19:13S 28°48' E 032°02'0 0.0
2015-Jun-21 15:06S 28°48' E 032°02'0 0.0
2015-Jun-21 14:33S 28°48' E 032°02'0 0.0
2015-Jun-21 03:30S 28°48' E 032°02'0 0.0
2015-Jun-21 02:33S 28°48' E 032°02'0 0.0
2015-Jun-20 23:29S 28°48' E 032°02'0 0.0
2015-Jun-20 18:31S 28°48' E 032°02'  
2015-Jun-16 21:29S 28°53' E 032°12'2 1.8
2015-Jun-16 20:33S 28°51' E 032°12'8 7.9
2015-Jun-16 19:33S 28°46' E 032°19'2812.8
2015-Jun-16 17:23S 28°26' E 032°41'  
Track history (hours):
 
Tides and Currents Weather Stations Pressure Air Temp Water Temp Dewpoint Dewpoint Depression Visibility Wind Speed Wind Dir Waves Ship Positions

MV Evnia

Last reported at 2015-Jun-24 23:33 UTC. Time now 2015-Jul-07 17:34 UTC.
Position S 28°54' E 032°05'.
Warning: this ship's position is 12 days out of date.

Length 190 m.

Type: Cargo ship. MMSI: 209279000.

Date/timePositionNaut miles runAvg speedWind from/ knotsBaromVisibWave heightAir tempDewpointWater temp
2015-Jun-24 23:33S 28°54' E 032°05'0 0.0
2015-Jun-24 22:33S 28°54' E 032°05'0 0.0
2015-Jun-24 21:33S 28°54' E 032°05'0 0.0
2015-Jun-24 20:33S 28°54' E 032°05'0 0.0
2015-Jun-24 19:30S 28°54' E 032°05'0 0.0
2015-Jun-24 18:33S 28°54' E 032°05'0 0.0
2015-Jun-24 17:33S 28°54' E 032°05'0 0.0
2015-Jun-24 16:33S 28°54' E 032°05'0 0.0
2015-Jun-24 15:33S 28°54' E 032°05'0 0.0
2015-Jun-24 13:33S 28°54' E 032°05'0 0.0
2015-Jun-24 12:33S 28°54' E 032°05'0 0.0
2015-Jun-24 11:33S 28°54' E 032°05'0 0.0
2015-Jun-24 10:33S 28°54' E 032°05'0 0.0
2015-Jun-24 09:33S 28°54' E 032°05'0 0.0
2015-Jun-24 08:33S 28°54' E 032°05'0 0.0
2015-Jun-24 07:33S 28°54' E 032°05'0 0.0
2015-Jun-24 06:33S 28°54' E 032°05'0 0.0
2015-Jun-24 05:33S 28°54' E 032°05'0 0.0
2015-Jun-24 04:33S 28°54' E 032°05'0 0.0
2015-Jun-24 03:32S 28°54' E 032°05'0 0.0
2015-Jun-24 02:32S 28°54' E 032°05'0 0.0
2015-Jun-24 01:26S 28°54' E 032°05'0 0.0
2015-Jun-24 00:32S 28°54' E 032°05'0 0.0
2015-Jun-23 23:32S 28°54' E 032°05'0 0.0
2015-Jun-23 22:32S 28°54' E 032°05'0 0.0
2015-Jun-23 21:32S 28°54' E 032°05'0 0.0
2015-Jun-23 20:32S 28°54' E 032°05'2 2.4
2015-Jun-23 19:32S 28°53' E 032°07'4 7.7
2015-Jun-23 19:03S 28°49' E 032°09'6 0.2
2015-Jun-22 19:14S 28°48' E 032°02'0 0.0
2015-Jun-22 16:12S 28°48' E 032°02'0 0.0
2015-Jun-22 15:33S 28°48' E 032°02'0 0.0
2015-Jun-22 14:33S 28°48' E 032°02'0 0.0
2015-Jun-22 13:33S 28°48' E 032°02'0 0.0
2015-Jun-22 12:33S 28°48' E 032°02'0 0.0
2015-Jun-22 11:33S 28°48' E 032°02'0 0.0
2015-Jun-22 10:33S 28°48' E 032°02'0 0.0
2015-Jun-22 06:19S 28°48' E 032°02'0 0.0
2015-Jun-22 05:33S 28°48' E 032°02'0 0.0
2015-Jun-22 00:10S 28°48' E 032°02'0 0.0
2015-Jun-21 23:33S 28°48' E 032°02'0 0.0
2015-Jun-21 22:32S 28°48' E 032°02'0 0.0
2015-Jun-21 21:06S 28°48' E 032°02'0 0.0
2015-Jun-21 19:13S 28°48' E 032°02'0 0.0
2015-Jun-21 15:06S 28°48' E 032°02'0 0.0
2015-Jun-21 14:33S 28°48' E 032°02'0 0.0
2015-Jun-21 03:30S 28°48' E 032°02'0 0.0
2015-Jun-21 02:33S 28°48' E 032°02'0 0.0
2015-Jun-20 23:29S 28°48' E 032°02'0 0.0
2015-Jun-20 18:31S 28°48' E 032°02'  
2015-Jun-16 21:29S 28°53' E 032°12'2 1.8
2015-Jun-16 20:33S 28°51' E 032°12'8 7.9
2015-Jun-16 19:33S 28°46' E 032°19'2812.8
2015-Jun-16 17:23S 28°26' E 032°41'  

Dump ship's entire track history